Time;durP1;ratioP1;P1;durP2;ratioP2;P2;SDS_P1;SDS_P2;PMS_P1;PMS_P2;Temp;Humidity;BMP_temperature;BMP_pressure;BME280_temperature;BME280_humidity;BME280_pressure;Samples;Min_cycle;Max_cycle;Signal;HPM_P1;HPM_P2
2022/10/04 00:00:28;;;;;;;16.60;7.38;;;;;;;11.00;96.32;102302.50;5031100;28;20033;-80
2022/10/04 00:03:05;;;;;;;15.65;7.90;;;;;;;11.04;96.12;102307.59;5034388;28;20115;-80
2022/10/04 00:05:31;;;;;;;14.60;7.68;;;;;;;11.04;96.31;102306.72;5031367;28;20053;-80
2022/10/04 00:08:03;;;;;;;17.08;7.35;;;;;;;11.03;96.34;102308.53;5040993;28;20040;-80
2022/10/04 00:10:32;;;;;;;11.27;7.88;;;;;;;11.04;96.35;102314.69;5030206;28;20537;-80
2022/10/04 00:12:59;;;;;;;14.98;8.23;;;;;;;11.03;96.84;102307.66;5031517;28;20041;-80
2022/10/04 00:15:48;;;;;;;13.48;7.82;;;;;;;11.05;96.61;102297.81;5031002;28;20033;-80
2022/10/04 00:18:22;;;;;;;13.52;7.72;;;;;;;11.06;96.75;102297.72;5030966;28;20044;-80
2022/10/04 00:20:58;;;;;;;14.18;8.23;;;;;;;11.06;96.45;102297.72;5018424;28;20033;-80
2022/10/04 00:23:24;;;;;;;12.25;7.90;;;;;;;11.04;96.68;102299.63;5030773;28;20061;-80
2022/10/04 00:26:01;;;;;;;17.27;8.07;;;;;;;11.05;97.12;102289.81;5031534;28;20421;-80
2022/10/04 00:28:40;;;;;;;13.32;7.55;;;;;;;11.02;96.35;102292.66;5041333;28;20477;-80
2022/10/04 00:31:18;;;;;;;14.52;7.65;;;;;;;11.01;96.23;102291.81;5041247;28;20068;-80
2022/10/04 00:33:45;;;;;;;12.52;7.65;;;;;;;10.95;95.53;102281.50;5030031;28;20100;-80
2022/10/04 00:36:25;;;;;;;12.80;7.82;;;;;;;10.95;96.05;102278.84;5034483;28;20041;-80
2022/10/04 00:39:03;;;;;;;16.20;8.18;;;;;;;10.93;95.91;102278.91;5034574;28;20463;-80
2022/10/04 00:41:40;;;;;;;12.13;7.57;;;;;;;10.83;96.59;102261.75;5034230;28;20017;-79
2022/10/04 00:44:14;;;;;;;16.60;7.60;;;;;;;10.87;96.01;102281.06;5028560;28;20037;-79
2022/10/04 00:46:41;;;;;;;13.27;8.02;;;;;;;10.84;96.38;102286.53;5040974;28;20468;-79
2022/10/04 00:49:09;;;;;;;14.93;7.68;;;;;;;10.82;96.21;102285.78;5034428;28;20029;-80
2022/10/04 00:51:43;;;;;;;14.38;7.68;;;;;;;10.84;96.66;102284.75;5075256;22;20461;-49
2022/10/04 00:54:17;;;;;;;14.57;7.82;;;;;;;10.83;96.40;102288.34;5046344;28;20045;-49
2022/10/04 00:56:48;;;;;;;16.67;8.40;;;;;;;10.80;95.86;102285.84;5052106;28;20033;-49
2022/10/04 00:59:23;;;;;;;10.88;7.40;;;;;;;10.77;95.97;102280.69;5052102;28;20446;-49
2022/10/04 01:01:55;;;;;;;15.10;8.23;;;;;;;10.75;96.34;102271.97;5052885;28;20033;-50
2022/10/04 01:04:30;;;;;;;14.32;7.63;;;;;;;10.72;96.00;102258.84;5052228;28;20045;-49
2022/10/04 01:07:00;;;;;;;15.50;8.07;;;;;;;10.69;96.17;102251.03;5052234;28;20472;-51
2022/10/04 01:09:26;;;;;;;13.13;8.10;;;;;;;10.66;96.56;102254.72;5052356;28;20044;-50
2022/10/04 01:12:02;;;;;;;13.30;7.82;;;;;;;10.67;96.85;102245.78;5052582;28;20079;-50
2022/10/04 01:15:00;;;;;;;18.35;9.02;;;;;;;10.70;96.62;102240.31;5051472;28;20463;-49
2022/10/04 01:17:25;;;;;;;13.10;8.65;;;;;;;10.62;95.87;102239.03;5026276;28;20030;-51
2022/10/04 01:19:52;;;;;;;17.38;8.77;;;;;;;10.60;96.30;102241.75;5058742;28;20109;-52
2022/10/04 01:22:40;;;;;;;16.48;8.90;;;;;;;10.60;96.56;102236.44;5056711;28;20029;-49
2022/10/04 01:25:05;;;;;;;13.23;8.23;;;;;;;10.56;96.81;102242.88;5049971;28;20686;-50
2022/10/04 01:27:38;;;;;;;15.48;9.05;;;;;;;10.52;97.19;102239.53;5052260;28;20467;-50
2022/10/04 01:30:08;;;;;;;17.05;9.05;;;;;;;10.52;96.84;102238.66;5051222;28;20029;-48
2022/10/04 01:32:34;;;;;;;16.42;8.65;;;;;;;10.49;96.58;102222.88;5046866;28;20055;-49
2022/10/04 01:35:00;;;;;;;15.23;8.57;;;;;;;10.47;96.22;102230.94;5051949;28;20037;-48
2022/10/04 01:37:25;;;;;;;12.55;8.48;;;;;;;10.47;97.07;102238.06;5049982;28;20036;-51
2022/10/04 01:39:51;;;;;;;12.98;8.60;;;;;;;10.44;96.84;102236.44;5052049;28;20129;-49
2022/10/04 01:42:22;;;;;;;17.77;8.95;;;;;;;10.44;96.37;102232.91;5051514;28;20029;-52
2022/10/04 01:44:59;;;;;;;13.15;8.45;;;;;;;10.39;96.27;102227.81;5049687;28;20048;-50
2022/10/04 01:47:54;;;;;;;15.23;8.77;;;;;;;10.41;96.26;102220.66;5051338;28;20090;-49
2022/10/04 01:50:25;;;;;;;14.88;9.07;;;;;;;10.36;96.76;102228.03;5048350;28;20025;-49
2022/10/04 01:53:00;;;;;;;14.18;8.63;;;;;;;10.29;96.39;102223.91;5051659;28;20048;-49
2022/10/04 01:55:29;;;;;;;20.95;9.40;;;;;;;10.29;97.51;102230.13;5051503;28;20017;-49
2022/10/04 01:58:07;;;;;;;;;;;;;;;10.40;95.94;102226.06;5052415;28;20033;-51
2022/10/04 02:00:33;;;;;;;12.88;9.30;;;;;;;10.30;97.25;102223.00;5046706;28;19970;-49
2022/10/04 02:03:08;;;;;;;15.82;8.75;;;;;;;10.28;97.17;102216.91;5051384;28;20029;-50
2022/10/04 02:05:37;;;;;;;13.88;8.68;;;;;;;10.27;97.59;102225.81;5050908;28;20036;-48
2022/10/04 02:08:26;;;;;;;19.95;9.35;;;;;;;10.26;97.66;102208.16;5051470;28;20025;-50
2022/10/04 02:10:53;;;;;;;17.85;9.00;;;;;;;10.22;97.15;102214.56;5049708;28;20194;-49
2022/10/04 02:13:20;;;;;;;13.70;8.68;;;;;;;10.21;97.04;102207.53;5051201;28;20029;-49
2022/10/04 02:15:48;;;;;;;14.65;8.82;;;;;;;10.14;97.32;102201.69;5051506;28;20095;-49
2022/10/04 02:18:19;;;;;;;16.63;9.55;;;;;;;10.15;97.40;102195.47;5050158;28;20608;-49
2022/10/04 02:20:47;;;;;;;16.58;9.02;;;;;;;10.11;97.55;102194.78;5043190;28;20037;-49
2022/10/04 02:23:16;;;;;;;14.02;9.10;;;;;;;10.06;97.25;102186.19;5055955;28;20086;-50
2022/10/04 02:25:42;;;;;;;16.17;9.23;;;;;;;10.05;97.17;102186.28;5057218;28;20048;-49
2022/10/04 02:28:12;;;;;;;15.05;9.15;;;;;;;10.03;97.28;102173.09;5050009;28;20112;-49
2022/10/04 02:30:41;;;;;;;19.77;9.82;;;;;;;10.02;97.50;102173.16;5044650;28;20119;-49
2022/10/04 02:33:07;;;;;;;18.00;10.07;;;;;;;10.00;97.58;102163.47;5053051;28;20052;-49
2022/10/04 02:35:37;;;;;;;17.48;9.90;;;;;;;9.96;98.04;102161.94;5053092;28;20765;-52
2022/10/04 02:38:11;;;;;;;15.77;9.55;;;;;;;9.95;97.70;102156.69;5052770;28;20059;-51
2022/10/04 02:40:48;;;;;;;20.17;9.77;;;;;;;9.93;97.71;102156.78;5053696;28;20095;-51
2022/10/04 02:43:27;;;;;;;14.35;9.32;;;;;;;9.90;98.23;102145.47;5053070;28;20024;-48
2022/10/04 02:46:08;;;;;;;16.30;9.57;;;;;;;9.86;98.12;102152.75;5052106;28;20079;-50
2022/10/04 02:48:43;;;;;;;19.02;10.75;;;;;;;9.84;98.14;102146.63;5040318;28;20113;-50
2022/10/04 02:51:35;;;;;;;16.45;10.13;;;;;;;9.83;98.45;102131.66;5052782;28;20143;-48
2022/10/04 02:54:06;;;;;;;18.00;10.57;;;;;;;9.74;98.36;102125.06;5050037;28;20490;-52
2022/10/04 02:56:32;;;;;;;19.88;10.13;;;;;;;9.69;98.16;102121.78;5052600;28;20027;-48
2022/10/04 02:59:05;;;;;;;15.50;9.70;;;;;;;9.68;98.27;102112.09;5052964;28;20055;-48
2022/10/04 03:01:54;;;;;;;21.90;10.60;;;;;;;9.67;98.30;102115.69;5039624;28;20108;-50
2022/10/04 03:04:22;;;;;;;13.63;10.20;;;;;;;9.65;98.54;102106.13;5052903;28;20021;-49
2022/10/04 03:06:49;;;;;;;18.52;10.23;;;;;;;9.66;98.40;102110.47;5052171;28;20029;-48
2022/10/04 03:09:16;;;;;;;15.15;10.27;;;;;;;9.63;98.42;102100.88;5051860;28;20510;-49
2022/10/04 03:11:42;;;;;;;21.25;11.20;;;;;;;9.59;98.25;102110.81;5052333;28;20110;-50
2022/10/04 03:14:19;;;;;;;16.73;10.75;;;;;;;9.59;98.58;102110.81;5052078;28;20037;-49
2022/10/04 03:16:48;;;;;;;18.98;10.90;;;;;;;9.56;98.79;102108.31;5052344;28;20025;-50
2022/10/04 03:19:16;;;;;;;15.60;10.70;;;;;;;9.55;98.13;102109.22;5051745;28;20116;-49
2022/10/04 03:21:45;;;;;;;19.00;11.32;;;;;;;9.51;98.31;102107.69;5046952;28;20164;-49
2022/10/04 03:24:17;;;;;;;19.70;11.23;;;;;;;9.49;98.42;102103.38;5045128;28;20039;-48
2022/10/04 03:26:49;;;;;;;17.60;11.05;;;;;;;9.47;98.15;102099.97;5050579;28;20032;-51
2022/10/04 03:29:17;;;;;;;14.63;11.18;;;;;;;9.42;98.19;102095.75;5051405;28;20505;-51
2022/10/04 03:31:46;;;;;;;17.88;11.63;;;;;;;9.39;98.06;102103.88;5051769;28;20082;-50
2022/10/04 03:34:15;;;;;;;16.67;11.50;;;;;;;9.37;98.23;102095.13;5047389;28;20029;-50
2022/10/04 03:36:42;;;;;;;18.98;10.77;;;;;;;9.37;98.50;102088.97;5052185;28;20029;-48
2022/10/04 03:39:10;;;;;;;20.80;11.55;;;;;;;9.32;98.29;102085.69;5052193;28;20021;-50
2022/10/04 03:41:40;;;;;;;17.13;11.50;;;;;;;9.31;98.19;102084.84;5051480;28;20040;-48
2022/10/04 03:44:13;;;;;;;17.85;11.73;;;;;;;9.29;98.39;102080.56;5052169;28;20390;-51
2022/10/04 03:46:39;;;;;;;17.23;11.45;;;;;;;9.25;98.58;102079.84;5052187;28;20021;-49
2022/10/04 03:49:06;;;;;;;17.88;11.00;;;;;;;9.24;98.65;102084.31;5051858;28;20029;-52
2022/10/04 03:51:32;;;;;;;17.23;11.77;;;;;;;9.22;98.78;102078.22;5051150;28;20398;-48
2022/10/04 03:54:01;;;;;;;18.83;10.93;;;;;;;9.19;98.45;102075.75;5052184;28;20104;-51
2022/10/04 03:56:35;;;;;;;17.98;11.75;;;;;;;9.20;98.91;102066.84;5051172;28;20660;-50
2022/10/04 03:59:05;;;;;;;15.48;10.70;;;;;;;9.15;98.73;102062.72;5050792;28;20059;-49
2022/10/04 04:01:43;;;;;;;18.08;11.13;;;;;;;9.16;99.04;102069.72;5051717;28;20021;-48
2022/10/04 04:04:41;;;;;;;17.17;11.60;;;;;;;9.18;99.23;102071.38;5052409;28;20112;-52
2022/10/04 04:07:19;;;;;;;17.27;11.52;;;;;;;9.13;99.19;102072.53;5032904;28;20513;-53
2022/10/04 04:09:58;;;;;;;21.00;10.93;;;;;;;9.11;99.03;102066.44;5054170;28;20074;-51
2022/10/04 04:12:53;;;;;;;19.73;12.13;;;;;;;9.09;98.85;102069.16;5055742;28;20044;-49
2022/10/04 04:15:18;;;;;;;17.35;11.13;;;;;;;9.05;98.78;102065.81;5054909;28;20024;-50
2022/10/04 04:17:51;;;;;;;17.65;11.20;;;;;;;9.03;98.67;102069.50;5055221;28;20040;-51
2022/10/04 04:20:22;;;;;;;17.73;10.93;;;;;;;9.04;98.85;102066.78;5055215;28;20031;-51
2022/10/04 04:22:57;;;;;;;18.92;11.02;;;;;;;9.04;99.29;102071.19;5054865;28;20029;-51
2022/10/04 04:25:25;;;;;;;17.48;10.77;;;;;;;9.01;99.09;102069.56;5055832;28;20051;-52
2022/10/04 04:27:54;;;;;;;16.98;11.35;;;;;;;9.00;99.34;102080.25;5054947;28;20041;-53
2022/10/04 04:30:20;;;;;;;19.15;10.65;;;;;;;9.00;99.36;102069.66;5055455;28;20025;-50
2022/10/04 04:32:50;;;;;;;15.68;10.80;;;;;;;8.99;98.77;102075.88;5055094;28;20029;-49
2022/10/04 04:35:31;;;;;;;16.77;10.90;;;;;;;9.00;98.99;102080.25;5055840;28;20021;-52
2022/10/04 04:38:03;;;;;;;18.88;10.68;;;;;;;8.94;98.64;102076.09;5054286;28;20028;-49
2022/10/04 04:40:29;;;;;;;17.27;10.60;;;;;;;8.93;98.74;102070.91;5055546;28;20453;-52
2022/10/04 04:42:58;;;;;;;18.73;10.90;;;;;;;8.89;98.96;102060.44;5055095;28;20021;-49
2022/10/04 04:45:28;;;;;;;16.15;10.82;;;;;;;8.86;98.82;102063.25;5053306;28;20049;-49
2022/10/04 04:47:56;;;;;;;15.80;11.23;;;;;;;8.84;98.94;102057.19;5042957;28;20032;-52
2022/10/04 04:50:30;;;;;;;19.63;10.77;;;;;;;8.86;99.37;102051.81;5054910;28;20039;-49
2022/10/04 04:53:07;;;;;;;16.65;11.02;;;;;;;8.85;99.00;102055.38;5054936;28;20498;-49
2022/10/04 04:55:37;;;;;;;14.63;10.35;;;;;;;8.82;99.05;102042.28;5054533;28;20407;-50
2022/10/04 04:58:04;;;;;;;16.65;10.95;;;;;;;8.79;99.30;102038.00;5055052;28;20064;-48
2022/10/04 05:00:37;;;;;;;15.50;10.27;;;;;;;8.77;99.48;102036.34;5054533;28;20029;-52
2022/10/04 05:03:07;;;;;;;15.65;9.90;;;;;;;8.76;99.22;102042.56;5054566;28;20021;-51
2022/10/04 05:05:34;;;;;;;18.38;11.05;;;;;;;8.75;99.38;102051.47;5054698;28;20028;-48
2022/10/04 05:08:19;;;;;;;16.15;10.38;;;;;;;8.76;99.46;102051.41;5054320;28;20033;-50
2022/10/04 05:10:51;;;;;;;16.92;9.73;;;;;;;8.73;99.47;102050.66;5043744;28;20029;-48
2022/10/04 05:13:18;;;;;;;16.70;10.77;;;;;;;8.72;99.32;102054.28;5054535;28;20021;-49
2022/10/04 05:15:44;;;;;;;17.70;10.98;;;;;;;8.71;99.73;102050.78;5054325;28;20415;-52
2022/10/04 05:18:30;;;;;;;13.88;9.68;;;;;;;8.72;99.79;102049.81;5041863;28;20036;-51
2022/10/04 05:21:04;;;;;;;17.13;10.40;;;;;;;8.70;99.28;102051.69;5053472;28;20044;-49
2022/10/04 05:23:31;;;;;;;19.23;10.25;;;;;;;8.66;98.96;102052.75;5054555;28;20028;-52
2022/10/04 05:25:59;;;;;;;16.75;10.27;;;;;;;8.65;99.00;102051.06;5053802;28;20064;-50
2022/10/04 05:28:24;;;;;;;15.38;9.95;;;;;;;8.66;99.08;102058.94;5042079;28;20459;-50
2022/10/04 05:31:03;;;;;;;15.55;9.68;;;;;;;8.65;98.86;102051.91;5052883;28;20108;-52
2022/10/04 05:33:48;;;;;;;17.40;10.23;;;;;;;8.66;98.42;102045.69;5053604;28;20036;-48
2022/10/04 05:36:35;;;;;;;14.60;9.88;;;;;;;8.63;98.77;102045.00;5053657;28;20025;-50
2022/10/04 05:39:12;;;;;;;16.33;8.82;;;;;;;8.63;98.90;102042.34;5034778;28;20026;-49
2022/10/04 05:42:15;;;;;;;14.38;9.38;;;;;;;8.64;99.12;102051.97;5041126;28;20041;-50
2022/10/04 05:44:50;;;;;;;15.95;8.15;;;;;;;8.60;98.99;102056.56;5036550;28;20037;-52
2022/10/04 05:47:22;;;;;;;18.40;9.38;;;;;;;8.58;98.78;102058.44;5044997;28;20506;-48
2022/10/04 05:49:50;;;;;;;18.15;9.52;;;;;;;8.56;98.84;102048.84;5040606;28;20049;-49
2022/10/04 05:52:26;;;;;;;13.10;7.85;;;;;;;8.56;98.62;102055.03;5036100;28;20099;-49
2022/10/04 05:55:20;;;;;;;14.82;8.55;;;;;;;8.58;99.14;102069.03;5042439;28;20079;-51
2022/10/04 05:57:56;;;;;;;14.00;8.55;;;;;;;8.56;99.29;102068.28;5036295;28;20048;-49
2022/10/04 06:00:31;;;;;;;13.20;8.13;;;;;;;8.55;98.67;102066.53;5041397;28;20068;-50
2022/10/04 06:03:12;;;;;;;15.60;8.20;;;;;;;8.56;99.02;102067.38;5047545;28;20398;-49
2022/10/04 06:05:54;;;;;;;13.98;7.82;;;;;;;8.56;99.00;102070.91;5046199;28;20053;-49
2022/10/04 06:08:42;;;;;;;13.95;8.70;;;;;;;8.51;98.95;102065.00;5042836;28;20036;-49
2022/10/04 06:11:21;;;;;;;15.05;8.98;;;;;;;8.56;99.83;102067.38;5045235;28;20045;-49
2022/10/04 06:14:08;;;;;;;13.05;9.13;;;;;;;8.55;99.58;102068.34;5046314;28;20413;-49
2022/10/04 06:16:57;;;;;;;12.32;8.90;;;;;;;8.59;99.76;102073.38;5047196;28;20037;-48
2022/10/04 06:19:59;;;;;;;15.82;8.18;;;;;;;8.60;99.63;102076.91;5046055;28;20045;-49
2022/10/04 06:22:28;;;;;;;14.15;7.95;;;;;;;8.60;99.57;102072.47;5047350;28;20116;-48
2022/10/04 06:25:04;;;;;;;13.75;7.72;;;;;;;8.62;99.33;102067.09;5037156;28;20037;-49
2022/10/04 06:27:35;;;;;;;16.02;8.82;;;;;;;8.61;99.79;102074.19;5033599;28;20544;-49
2022/10/04 06:30:11;;;;;;;14.48;7.95;;;;;;;8.66;100.00;102076.59;5038463;28;20037;-51
2022/10/04 06:32:58;;;;;;;13.18;8.02;;;;;;;8.65;100.00;102070.44;5044865;28;20458;-50
2022/10/04 06:36:00;;;;;;;17.15;7.80;;;;;;;8.68;100.00;102064.16;5044743;28;20044;-50
2022/10/04 06:38:47;;;;;;;15.95;7.53;;;;;;;8.69;99.69;102065.84;5042117;28;20032;-49
2022/10/04 06:41:37;;;;;;;11.77;7.65;;;;;;;8.69;100.00;102061.44;5037542;28;20041;-48
2022/10/04 06:44:38;;;;;;;13.48;7.30;;;;;;;8.73;100.00;102051.53;5044759;28;20064;-49
2022/10/04 06:47:25;;;;;;;13.45;7.30;;;;;;;8.74;100.00;102058.53;5045434;28;20033;-53
2022/10/04 06:50:19;;;;;;;15.55;7.60;;;;;;;8.77;99.91;102065.50;5045404;28;20055;-50
2022/10/04 06:52:47;;;;;;;17.15;7.72;;;;;;;8.77;99.77;102060.19;5044319;28;20510;-50
2022/10/04 06:55:15;;;;;;;11.38;7.40;;;;;;;8.79;99.71;102063.63;5046293;28;20037;-50
2022/10/04 06:57:50;;;;;;;17.63;7.35;;;;;;;8.79;99.93;102064.50;5044254;28;20047;-51
2022/10/04 07:00:24;;;;;;;13.52;7.07;;;;;;;8.82;99.49;102063.47;5040507;28;20032;-51
2022/10/04 07:03:08;;;;;;;12.95;6.82;;;;;;;8.85;99.42;102065.97;5043058;28;20028;-51
2022/10/04 07:06:02;;;;;;;14.38;6.90;;;;;;;8.88;99.81;102063.19;5046248;28;20104;-51
2022/10/04 07:08:38;;;;;;;9.57;7.00;;;;;;;8.87;99.64;102048.19;5045004;28;20052;-53
2022/10/04 07:11:25;;;;;;;16.80;7.43;;;;;;;8.85;99.67;102050.06;5044933;28;20104;-52
2022/10/04 07:14:02;;;;;;;16.13;6.72;;;;;;;8.88;99.62;102052.56;5049811;28;20090;-51
2022/10/04 07:16:54;;;;;;;17.05;7.10;;;;;;;8.89;99.59;102051.63;5048162;28;20144;-52
2022/10/04 07:19:39;;;;;;;12.05;7.20;;;;;;;8.92;99.70;102046.16;5045463;28;20116;-52
2022/10/04 07:22:07;;;;;;;14.50;7.75;;;;;;;8.95;100.00;102046.03;5047168;28;20024;-52
2022/10/04 07:24:44;;;;;;;12.82;7.10;;;;;;;8.99;100.00;102038.78;5041965;28;20143;-50
2022/10/04 07:27:16;;;;;;;14.50;7.43;;;;;;;9.04;100.00;102034.97;5047708;28;20097;-51
2022/10/04 07:29:45;;;;;;;15.32;7.90;;;;;;;9.10;100.00;102043.53;5039181;28;20032;-51
2022/10/04 07:32:21;;;;;;;14.40;7.38;;;;;;;9.13;100.00;102051.34;5034884;28;20018;-51
2022/10/04 07:35:08;;;;;;;18.08;7.78;;;;;;;9.20;100.00;102050.06;5043496;28;20024;-52
2022/10/04 07:37:44;;;;;;;13.80;7.60;;;;;;;9.26;100.00;102047.13;5037626;28;20233;-50
2022/10/04 07:40:28;;;;;;;16.38;7.50;;;;;;;9.30;100.00;102053.97;5039154;28;20060;-49
2022/10/04 07:43:17;;;;;;;13.77;7.80;;;;;;;9.36;100.00;102056.31;5036657;28;20193;-53
2022/10/04 07:45:42;;;;;;;14.10;8.32;;;;;;;9.45;100.00;102054.97;5037689;28;20029;-52
2022/10/04 07:48:11;;;;;;;14.75;8.65;;;;;;;9.53;100.00;102058.06;5035439;28;20048;-53
2022/10/04 07:50:48;;;;;;;16.58;8.70;;;;;;;9.60;100.00;102062.09;5040693;28;20470;-53
2022/10/04 07:53:19;;;;;;;12.32;8.52;;;;;;;9.67;100.00;102053.81;5048219;28;20117;-51
2022/10/04 07:55:56;;;;;;;14.13;8.63;;;;;;;9.80;100.00;102044.25;5047738;28;20071;-53
2022/10/04 07:58:45;;;;;;;13.35;8.52;;;;;;;9.90;100.00;102045.47;5047597;28;20029;-51
2022/10/04 08:01:37;;;;;;;16.98;8.52;;;;;;;10.07;100.00;102041.03;5048192;28;20029;-53
2022/10/04 08:04:21;;;;;;;21.10;9.77;;;;;;;10.23;100.00;102041.91;5046670;28;20029;-53
2022/10/04 08:06:55;;;;;;;12.05;8.02;;;;;;;10.44;100.00;102039.88;5042815;28;20037;-53
2022/10/04 08:09:34;;;;;;;18.40;8.88;;;;;;;10.64;99.83;102043.19;5045328;28;20036;-51
2022/10/04 08:12:04;;;;;;;11.75;8.45;;;;;;;10.87;98.85;102034.72;5046127;28;20029;-53
2022/10/04 08:14:54;;;;;;;12.95;8.05;;;;;;;11.08;98.44;102024.63;5045898;28;20040;-52
2022/10/04 08:17:46;;;;;;;14.48;7.38;;;;;;;11.34;96.64;102024.00;5040308;28;20029;-53
2022/10/04 08:20:22;;;;;;;14.98;8.13;;;;;;;11.52;96.11;102022.84;5036103;28;20043;-55
2022/10/04 08:23:09;;;;;;;15.30;7.93;;;;;;;11.74;95.34;102029.50;5040202;28;20035;-55
2022/10/04 08:25:50;;;;;;;12.55;7.50;;;;;;;11.97;93.10;102026.31;5035236;28;20026;-55
2022/10/04 08:31:39;;;;;;;14.35;7.38;;;;;;;12.52;91.04;102029.88;5037013;28;20152;-56
2022/10/04 08:34:35;;;;;;;11.80;6.63;;;;;;;12.65;89.16;102034.38;5034946;28;20025;-54
2022/10/04 08:37:12;;;;;;;11.95;7.03;;;;;;;12.68;88.35;102034.16;5050008;28;20044;-55
2022/10/04 08:40:07;;;;;;;11.43;7.10;;;;;;;12.74;88.22;102036.44;5042692;28;20036;-55
2022/10/04 08:42:51;;;;;;;12.07;6.85;;;;;;;12.94;87.88;102041.28;5034721;28;20037;-54
2022/10/04 08:45:42;;;;;;;11.80;6.90;;;;;;;13.10;86.52;102032.22;5049262;28;20033;-55
2022/10/04 08:48:23;;;;;;;15.05;7.20;;;;;;;13.28;84.71;102036.28;5039301;28;20021;-55
2022/10/04 08:51:33;;;;;;;14.85;6.95;;;;;;;13.49;86.54;102047.34;5035790;28;20533;-56
2022/10/04 08:54:14;;;;;;;12.77;6.97;;;;;;;13.73;84.18;102024.34;5035282;28;20502;-56
2022/10/04 08:57:01;;;;;;;9.68;6.85;;;;;;;13.94;82.47;102036.19;5043235;28;20029;-56
2022/10/04 08:59:36;;;;;;;12.63;7.10;;;;;;;14.19;83.97;102035.25;5039784;28;20049;-55
2022/10/04 09:02:19;;;;;;;10.85;6.85;;;;;;;14.47;81.87;102032.34;5038111;28;20025;-56
2022/10/04 09:05:07;;;;;;;11.68;7.10;;;;;;;14.60;81.68;102028.69;5044060;28;20040;-57
2022/10/04 09:07:50;;;;;;;12.20;7.07;;;;;;;14.80;80.11;102029.00;5039257;28;20043;-56
2022/10/04 09:10:39;;;;;;;11.15;7.22;;;;;;;14.92;78.95;102035.25;5047527;28;20021;-56
2022/10/04 09:13:25;;;;;;;13.40;7.65;;;;;;;15.15;78.33;102044.19;5040921;28;20029;-57
2022/10/04 09:15:52;;;;;;;15.20;6.80;;;;;;;15.32;77.67;102046.44;5048124;28;20036;-56
2022/10/04 09:18:45;;;;;;;13.57;7.22;;;;;;;15.41;76.60;102033.28;5048023;28;20062;-56
2022/10/04 09:21:24;;;;;;;12.02;6.63;;;;;;;15.60;75.89;102033.53;5038874;28;20067;-56
2022/10/04 09:24:04;;;;;;;11.80;6.35;;;;;;;15.77;75.62;102037.59;5038348;28;20033;-57
2022/10/04 09:26:43;;;;;;;15.80;6.70;;;;;;;15.84;75.05;102033.44;5036369;28;20029;-57
2022/10/04 09:29:37;;;;;;;13.43;6.28;;;;;;;15.92;74.92;102024.81;5041833;28;20029;-57
2022/10/04 09:32:29;;;;;;;10.73;5.63;;;;;;;16.04;74.39;102023.81;5039680;28;20649;-56
2022/10/04 09:35:06;;;;;;;9.35;5.50;;;;;;;16.23;71.60;102017.78;5039219;28;20553;-56
2022/10/04 09:37:42;;;;;;;11.48;5.50;;;;;;;16.34;73.03;102010.72;5039207;28;20029;-57
2022/10/04 09:40:19;;;;;;;13.05;5.97;;;;;;;16.44;70.97;102017.00;5041712;28;20475;-57
2022/10/04 09:43:04;;;;;;;11.63;5.80;;;;;;;16.61;74.01;102018.28;5039124;28;20112;-56
2022/10/04 09:45:29;;;;;;;11.75;5.78;;;;;;;16.71;69.23;102007.63;5040914;28;20086;-57
2022/10/04 09:48:14;;;;;;;12.33;5.13;;;;;;;16.82;69.49;102000.38;5036585;28;20280;-56
2022/10/04 09:51:07;;;;;;;12.00;5.07;;;;;;;16.99;68.13;102011.53;5044333;28;20288;-57
2022/10/04 09:53:53;;;;;;;9.73;5.20;;;;;;;17.01;69.00;102012.25;5040211;28;20358;-57
2022/10/04 09:56:38;;;;;;;14.57;4.90;;;;;;;17.18;66.22;102019.69;5039902;28;20036;-55
2022/10/04 09:59:12;;;;;;;12.38;5.45;;;;;;;17.23;68.26;102015.78;5056484;28;20084;-56
2022/10/04 10:02:01;;;;;;;9.98;5.47;;;;;;;17.37;67.00;102012.75;5052159;28;20123;-57
2022/10/04 10:05:07;;;;;;;9.55;5.15;;;;;;;17.50;69.59;102012.50;5053905;28;20037;-57
2022/10/04 10:07:54;;;;;;;12.40;5.68;;;;;;;17.51;65.64;102007.00;5021646;28;20040;-57
2022/10/04 10:16:17;;;;;;;7.32;5.20;;;;;;;17.90;66.27;102006.31;5038684;28;20068;-55
2022/10/04 10:19:04;;;;;;;9.68;5.45;;;;;;;18.01;64.33;102005.38;5044569;28;20040;-54
2022/10/04 10:21:48;;;;;;;12.02;5.60;;;;;;;17.96;62.57;101996.88;5035677;28;20076;-57
2022/10/04 10:24:22;;;;;;;11.43;4.85;;;;;;;18.12;63.63;101981.06;5045418;28;20179;-56
2022/10/04 10:27:12;;;;;;;9.77;4.75;;;;;;;18.41;64.77;101980.25;5043366;28;20045;-56
2022/10/04 10:30:14;;;;;;;9.68;4.80;;;;;;;18.51;65.09;101973.00;5050481;28;20033;-56
2022/10/04 10:33:04;;;;;;;8.73;4.88;;;;;;;18.66;64.24;101970.72;5040195;28;20489;-56
2022/10/04 10:35:45;;;;;;;8.50;4.47;;;;;;;18.75;61.40;101975.28;5042984;28;20029;-57
2022/10/04 10:38:30;;;;;;;9.48;4.63;;;;;;;18.84;62.18;101990.56;5047132;28;20419;-56
2022/10/04 10:41:10;;;;;;;7.43;4.43;;;;;;;18.99;59.97;101984.75;5048119;28;20040;-56
2022/10/04 10:44:01;;;;;;;9.27;4.40;;;;;;;19.03;61.58;101984.31;5038363;28;20035;-57
2022/10/04 10:47:02;;;;;;;6.60;3.80;;;;;;;19.23;62.52;101979.72;5034155;28;20468;-56
2022/10/04 10:49:55;;;;;;;10.05;4.15;;;;;;;19.29;62.67;101989.06;5030830;28;20518;-56
2022/10/04 10:52:41;;;;;;;10.02;3.88;;;;;;;19.40;61.84;101996.97;5037030;28;20041;-55
2022/10/04 10:55:27;;;;;;;11.43;4.30;;;;;;;19.29;59.75;102005.22;5050818;28;20025;-56
2022/10/04 10:58:24;;;;;;;10.02;3.92;;;;;;;19.23;60.22;101997.72;5042404;28;20037;-57
2022/10/04 11:01:14;;;;;;;7.22;3.88;;;;;;;19.13;59.82;101995.03;5037147;28;20033;-57
2022/10/04 11:03:51;;;;;;;5.93;3.58;;;;;;;19.31;59.58;101975.44;5036723;28;20299;-55
2022/10/04 11:07:01;;;;;;;7.63;4.15;;;;;;;19.34;61.66;101977.84;5036701;28;20431;-57
2022/10/04 11:10:02;;;;;;;7.63;3.78;;;;;;;19.50;60.87;101979.88;5028914;28;20470;-54
2022/10/04 11:12:38;;;;;;;10.18;4.25;;;;;;;19.54;59.29;101973.22;5052228;28;20099;-56
2022/10/04 11:16:08;;;;;;;7.60;3.88;;;;;;;19.66;60.64;101961.22;5054786;28;20028;-56
2022/10/04 11:19:03;;;;;;;8.48;3.67;;;;;;;19.77;58.16;101946.75;4998863;28;20478;-56
2022/10/04 11:21:49;;;;;;;6.43;3.40;;;;;;;19.81;57.68;101958.06;5022667;28;20695;-54
2022/10/04 11:24:54;;;;;;;6.80;3.95;;;;;;;19.89;59.41;101958.16;5054793;28;20056;-55
2022/10/04 11:27:43;;;;;;;6.13;3.60;;;;;;;19.95;59.44;101957.53;5054990;28;20025;-55
2022/10/04 11:30:25;;;;;;;6.97;3.88;;;;;;;19.83;56.43;101954.22;5055119;28;20025;-55
2022/10/04 11:33:28;;;;;;;6.18;3.50;;;;;;;19.92;58.20;101941.69;5055032;28;20068;-56
2022/10/04 11:36:41;;;;;;;5.65;2.85;;;;;;;19.98;56.60;101945.63;5045146;28;20105;-56
2022/10/04 11:39:18;;;;;;;11.38;4.25;;;;;;;20.03;57.77;101943.31;5027190;28;20476;-55
2022/10/04 11:41:58;;;;;;;13.70;4.80;;;;;;;20.01;56.97;101942.63;5049878;28;20033;-55
2022/10/04 11:44:34;;;;;;;8.68;3.60;;;;;;;20.11;57.05;101943.38;5055474;28;20356;-55
2022/10/04 11:47:21;;;;;;;4.20;3.00;;;;;;;20.06;55.91;101938.44;5052851;28;20600;-55
2022/10/04 11:50:07;;;;;;;8.18;3.10;;;;;;;19.96;56.52;101937.69;5054427;28;20047;-56
2022/10/04 11:53:04;;;;;;;6.78;3.25;;;;;;;19.84;55.98;101923.56;5054798;28;20052;-54
2022/10/04 11:55:52;;;;;;;7.93;3.15;;;;;;;19.77;54.42;101919.78;5058220;28;20050;-54
2022/10/04 11:58:33;;;;;;;5.68;2.65;;;;;;;19.75;55.74;101922.63;5054358;28;20021;-55
2022/10/04 12:01:07;;;;;;;7.82;3.17;;;;;;;19.73;55.24;101921.91;5054380;28;20032;-55
2022/10/04 12:03:54;;;;;;;6.60;2.95;;;;;;;19.63;56.00;101920.25;5045649;28;20031;-56
2022/10/04 12:06:36;;;;;;;7.78;3.33;;;;;;;19.58;57.00;101926.97;5052090;28;20041;-56
2022/10/04 12:09:18;;;;;;;8.00;3.30;;;;;;;19.50;56.06;101920.63;5048151;28;20036;-55
2022/10/04 12:14:58;;;;;;;6.00;3.08;;;;;;;19.36;56.17;101930.06;5053894;28;20051;-55
2022/10/04 12:17:54;;;;;;;9.30;2.85;;;;;;;19.42;56.99;101924.91;5054698;28;20029;-55
2022/10/04 12:20:39;;;;;;;7.03;3.03;;;;;;;19.41;55.29;101915.13;5055203;28;20502;-55
2022/10/04 12:23:20;;;;;;;6.68;2.92;;;;;;;19.39;57.60;101919.81;5049144;28;20040;-55